createdAt,value
2019-01-23T00:01:19.667Z,63.35
2019-01-23T00:03:47.061Z,63.45
2019-01-23T00:06:14.460Z,63.49
2019-01-23T00:08:41.869Z,63.76
2019-01-23T00:11:09.292Z,63.73
2019-01-23T00:13:36.690Z,63.67
2019-01-23T00:16:04.114Z,63.73
2019-01-23T00:18:31.576Z,63.69
2019-01-23T00:20:59.007Z,63.54
2019-01-23T00:23:26.408Z,63.43
2019-01-23T00:25:53.888Z,63.72
2019-01-23T00:28:21.304Z,63.62
2019-01-23T00:30:48.747Z,63.57
2019-01-23T00:33:16.214Z,63.54
2019-01-23T00:35:43.670Z,63.38
2019-01-23T00:38:11.101Z,63.36
2019-01-23T00:40:38.557Z,63.11
2019-01-23T00:43:05.962Z,62.98
2019-01-23T00:45:33.392Z,63.26
2019-01-23T00:48:00.840Z,63.42
2019-01-23T00:50:28.796Z,63.67
2019-01-23T00:52:56.190Z,63.38
2019-01-23T00:55:23.624Z,62.87
2019-01-23T00:57:51.015Z,62.73
2019-01-23T01:00:22.361Z,62.64
2019-01-23T01:02:49.784Z,62.87
2019-01-23T01:05:17.630Z,63.08
2019-01-23T01:07:45.029Z,63.00
2019-01-23T01:10:12.459Z,62.86
2019-01-23T01:12:39.892Z,62.59
2019-01-23T01:15:13.127Z,62.48
2019-01-23T01:17:34.709Z,62.42
2019-01-23T01:20:02.174Z,62.19
2019-01-23T01:22:29.676Z,62.04
2019-01-23T01:24:57.084Z,62.35
2019-01-23T01:27:24.482Z,62.26
2019-01-23T01:29:51.904Z,62.19
2019-01-23T01:32:19.488Z,62.11
2019-01-23T01:34:46.941Z,62.12
2019-01-23T01:37:14.404Z,62.20
2019-01-23T01:39:41.810Z,62.16
2019-01-23T01:42:09.230Z,62.43
2019-01-23T01:44:36.641Z,62.38
2019-01-23T01:47:04.038Z,62.25
2019-01-23T01:49:31.454Z,62.26
2019-01-23T01:51:58.426Z,62.42
2019-01-23T01:54:25.888Z,62.47
2019-01-23T01:56:53.365Z,62.58
2019-01-23T01:59:20.786Z,62.94
2019-01-23T02:01:47.741Z,63.01
2019-01-23T02:04:15.151Z,63.07
2019-01-23T02:06:42.657Z,63.14
2019-01-23T02:09:10.078Z,63.24
2019-01-23T02:11:37.484Z,63.25
2019-01-23T02:14:04.898Z,63.50
2019-01-23T02:16:32.315Z,63.46
2019-01-23T02:18:59.731Z,63.87
2019-01-23T02:21:27.144Z,63.54
2019-01-23T02:23:54.547Z,63.35
2019-01-23T02:26:22.214Z,63.62
2019-01-23T02:28:49.664Z,63.83
2019-01-23T02:31:17.070Z,63.61
2019-01-23T02:33:44.619Z,63.64
2019-01-23T02:36:12.033Z,63.64
2019-01-23T02:38:39.457Z,63.55
2019-01-23T02:41:06.885Z,63.29
2019-01-23T02:43:34.348Z,63.48
2019-01-23T02:46:01.918Z,63.75
2019-01-23T02:48:29.465Z,63.44
2019-01-23T02:50:56.863Z,63.30
2019-01-23T02:53:24.346Z,63.73
2019-01-23T02:55:51.816Z,63.81
2019-01-23T02:58:19.270Z,63.75
2019-01-23T03:00:46.702Z,63.63
2019-01-23T03:03:14.380Z,63.36
2019-01-23T03:05:41.828Z,63.38
2019-01-23T03:08:09.232Z,63.50
2019-01-23T03:10:36.636Z,63.42
2019-01-23T03:13:04.054Z,63.40
2019-01-23T03:15:31.021Z,63.40
2019-01-23T03:17:58.518Z,63.31
2019-01-23T03:20:25.914Z,63.60
2019-01-23T03:22:53.470Z,63.75
2019-01-23T03:25:20.899Z,63.75
2019-01-23T03:27:48.327Z,63.84
2019-01-23T03:30:16.451Z,64.02
2019-01-23T03:32:43.881Z,64.38
2019-01-23T03:35:11.294Z,64.67
2019-01-23T03:37:38.721Z,64.97
2019-01-23T03:40:07.912Z,65.79
2019-01-23T03:42:35.173Z,66.66
2019-01-23T03:45:02.602Z,66.51
2019-01-23T03:47:30.052Z,66.33
2019-01-23T03:49:58.091Z,66.17
2019-01-23T03:52:25.496Z,66.46
2019-01-23T03:54:52.969Z,66.75
2019-01-23T03:57:20.400Z,66.88
2019-01-23T03:59:48.676Z,66.92
2019-01-23T04:02:16.100Z,67.00
2019-01-23T04:04:43.507Z,66.87
2019-01-23T04:07:10.973Z,66.87
2019-01-23T04:09:38.377Z,66.85
2019-01-23T04:12:05.850Z,66.95
2019-01-23T04:14:33.314Z,67.13
2019-01-23T04:17:00.776Z,67.13
2019-01-23T04:19:28.229Z,67.04
2019-01-23T04:21:55.635Z,67.15
2019-01-23T04:24:23.075Z,67.26
2019-01-23T04:26:50.943Z,67.22
2019-01-23T04:29:18.463Z,67.06
2019-01-23T04:31:45.920Z,67.14
2019-01-23T04:34:13.337Z,67.04
2019-01-23T04:36:40.734Z,66.90
2019-01-23T04:39:08.158Z,66.65
2019-01-23T04:41:35.644Z,66.86
2019-01-23T04:44:03.046Z,66.73
2019-01-23T04:46:30.480Z,66.36
2019-01-23T04:48:57.885Z,66.10
2019-01-23T04:51:40.221Z,66.12
2019-01-23T04:54:07.645Z,66.16
2019-01-23T04:56:35.046Z,66.14
2019-01-23T04:59:02.500Z,66.12
2019-01-23T05:01:29.951Z,65.97
2019-01-23T05:03:57.420Z,65.90
2019-01-23T05:06:24.842Z,66.00
2019-01-23T05:08:52.258Z,66.05
2019-01-23T05:11:19.695Z,66.08
2019-01-23T05:13:47.099Z,65.84
2019-01-23T05:16:14.604Z,65.80
2019-01-23T05:18:42.159Z,65.94
2019-01-23T05:21:09.590Z,66.05
2019-01-23T05:23:36.990Z,66.14
2019-01-23T05:26:04.422Z,66.13
2019-01-23T05:28:31.983Z,65.91
2019-01-23T05:30:59.375Z,65.66
2019-01-23T05:33:27.267Z,65.68
2019-01-23T05:35:54.685Z,65.82
2019-01-23T05:38:22.143Z,65.52
2019-01-23T05:40:49.542Z,65.51
2019-01-23T05:43:16.964Z,65.38
2019-01-23T05:45:44.447Z,64.90
2019-01-23T05:48:11.862Z,64.56
2019-01-23T05:50:39.358Z,64.54
2019-01-23T05:53:06.771Z,64.33
2019-01-23T05:55:34.184Z,64.44
2019-01-23T05:58:01.601Z,64.47
2019-01-23T06:00:29.053Z,64.52
2019-01-23T06:02:56.464Z,64.47
2019-01-23T06:05:23.877Z,64.44
2019-01-23T06:07:51.316Z,64.42
2019-01-23T06:10:18.755Z,64.61
2019-01-23T06:12:46.163Z,65.13
2019-01-23T06:15:13.698Z,65.29
2019-01-23T06:17:41.173Z,65.18
2019-01-23T06:20:09.462Z,65.25
2019-01-23T06:22:36.868Z,65.36
2019-01-23T06:25:04.365Z,65.62
2019-01-23T06:27:31.880Z,65.55
2019-01-23T06:29:59.329Z,65.32
2019-01-23T06:32:26.822Z,65.36
2019-01-23T06:34:54.455Z,65.43
2019-01-23T06:37:21.900Z,65.31
2019-01-23T06:39:49.399Z,65.12
2019-01-23T06:42:16.816Z,65.21
2019-01-23T06:44:44.219Z,65.32
2019-01-23T06:47:11.748Z,65.22
2019-01-23T06:49:39.246Z,65.07
2019-01-23T06:52:06.740Z,65.09
2019-01-23T06:54:34.199Z,65.21
2019-01-23T06:57:01.714Z,65.18
2019-01-23T06:59:29.150Z,64.71
2019-01-23T07:01:56.623Z,64.83
2019-01-23T07:04:24.079Z,64.86
2019-01-23T07:06:54.892Z,64.88
2019-01-23T07:09:22.977Z,64.76
2019-01-23T07:11:50.399Z,64.75
2019-01-23T07:14:18.154Z,64.67
2019-01-23T07:16:45.568Z,64.77
2019-01-23T07:19:13.068Z,64.87
2019-01-23T07:21:40.537Z,64.55
2019-01-23T07:24:08.130Z,64.16
2019-01-23T07:26:35.620Z,63.81
2019-01-23T07:29:03.887Z,63.70
2019-01-23T07:31:31.286Z,63.65
2019-01-23T07:33:58.980Z,63.88
2019-01-23T07:36:26.533Z,64.01
2019-01-23T07:38:54.089Z,64.23
2019-01-23T07:41:21.518Z,64.36
2019-01-23T07:43:48.936Z,64.33
2019-01-23T07:46:16.349Z,64.18
2019-01-23T07:48:43.746Z,63.83
2019-01-23T07:51:11.170Z,63.39
2019-01-23T07:53:38.594Z,63.10
2019-01-23T07:56:07.048Z,63.00
2019-01-23T07:58:34.469Z,62.95
2019-01-23T08:01:01.891Z,62.86
2019-01-23T08:03:29.367Z,62.54
2019-01-23T08:05:56.781Z,62.19
2019-01-23T08:08:24.193Z,61.92
2019-01-23T08:10:51.598Z,61.97
2019-01-23T08:13:19.179Z,61.91
2019-01-23T08:15:46.570Z,61.77
2019-01-23T08:18:14.013Z,61.45
2019-01-23T08:20:41.474Z,61.31
2019-01-23T08:23:08.930Z,60.98
2019-01-23T08:25:36.537Z,60.96
2019-01-23T08:28:03.945Z,61.02
2019-01-23T08:30:38.434Z,60.94
2019-01-23T08:32:58.968Z,61.06
2019-01-23T08:35:26.427Z,61.04
2019-01-23T08:37:53.881Z,60.96
2019-01-23T08:40:21.349Z,61.25
2019-01-23T08:42:48.803Z,61.63
2019-01-23T08:45:16.290Z,61.75
2019-01-23T08:47:43.750Z,62.04
2019-01-23T08:50:18.734Z,62.82
2019-01-23T08:52:46.199Z,63.59
2019-01-23T08:55:14.168Z,64.16
2019-01-23T08:57:41.603Z,64.47
2019-01-23T09:00:09.283Z,65.48
2019-01-23T09:02:37.564Z,65.81
2019-01-23T09:05:05.085Z,66.37
2019-01-23T09:07:32.508Z,67.08
2019-01-23T09:09:59.936Z,68.19
2019-01-23T09:12:27.360Z,68.30
2019-01-23T09:14:54.851Z,68.50
2019-01-23T09:17:22.278Z,69.01
2019-01-23T09:19:49.706Z,69.75
2019-01-23T09:22:17.135Z,70.30
2019-01-23T09:24:45.353Z,70.43
2019-01-23T09:27:12.771Z,70.94
2019-01-23T09:29:40.338Z,71.32
2019-01-23T09:32:13.810Z,71.51
2019-01-23T09:34:42.186Z,71.78
2019-01-23T09:37:10.445Z,71.57
2019-01-23T09:39:43.803Z,71.49
2019-01-23T09:42:12.896Z,71.30
2019-01-23T09:44:48.083Z,71.34
2019-01-23T09:47:18.343Z,71.26
2019-01-23T09:50:07.466Z,71.48
2019-01-23T09:52:57.585Z,71.14
2019-01-23T09:55:25.034Z,71.49
2019-01-23T09:57:52.461Z,71.53
2019-01-23T10:00:20.185Z,71.77
2019-01-23T10:02:47.584Z,71.47
2019-01-23T10:05:15.042Z,71.40
2019-01-23T10:07:42.543Z,71.06
2019-01-23T10:10:09.931Z,70.54
2019-01-23T10:12:37.492Z,70.42
2019-01-23T10:15:05.075Z,70.09
2019-01-23T10:17:32.581Z,70.31
2019-01-23T10:20:00.192Z,70.49
2019-01-23T10:22:27.631Z,70.50
2019-01-23T10:24:55.157Z,70.46
2019-01-23T10:27:22.650Z,70.33
2019-01-23T10:29:50.110Z,70.69
2019-01-23T10:32:17.585Z,70.83
2019-01-23T10:34:44.996Z,70.95
2019-01-23T10:37:12.551Z,70.48
2019-01-23T10:39:39.958Z,70.75
2019-01-23T10:42:07.584Z,71.07
2019-01-23T10:44:34.983Z,70.85
2019-01-23T10:47:02.424Z,71.47
2019-01-23T10:49:29.911Z,71.78
2019-01-23T10:51:57.405Z,72.12
2019-01-23T10:54:24.803Z,72.16
2019-01-23T10:56:52.216Z,72.06
2019-01-23T10:59:19.663Z,72.29
2019-01-23T11:01:47.099Z,72.21
2019-01-23T11:04:15.100Z,72.69
2019-01-23T11:06:42.649Z,72.90
2019-01-23T11:09:10.196Z,72.72
2019-01-23T11:11:38.348Z,72.61
2019-01-23T11:14:05.797Z,73.12
2019-01-23T11:16:34.141Z,73.54
2019-01-23T11:19:01.784Z,73.64
2019-01-23T11:21:29.202Z,73.35
2019-01-23T11:23:56.612Z,73.61
2019-01-23T11:26:24.042Z,73.94
2019-01-23T11:28:51.608Z,74.06
2019-01-23T11:31:20.510Z,74.16
2019-01-23T11:33:46.551Z,74.22
2019-01-23T11:36:14.024Z,73.99
2019-01-23T11:38:41.442Z,74.19
2019-01-23T11:41:09.783Z,74.43
2019-01-23T11:43:37.375Z,73.91
2019-01-23T11:46:05.506Z,74.00
2019-01-23T11:48:32.898Z,74.33
2019-01-23T11:51:00.382Z,74.23
2019-01-23T11:53:27.872Z,74.24
2019-01-23T11:55:55.384Z,74.48
2019-01-23T11:58:22.843Z,74.63
2019-01-23T12:00:50.684Z,74.42
2019-01-23T12:03:21.041Z,74.21
2019-01-23T12:05:45.642Z,74.23
2019-01-23T12:08:13.075Z,74.05
2019-01-23T12:10:40.616Z,74.13
2019-01-23T12:13:08.380Z,74.02
2019-01-23T12:15:40.780Z,74.29
2019-01-23T12:18:03.334Z,74.16
2019-01-23T12:20:30.855Z,74.41
2019-01-23T12:25:32.116Z,74.51
2019-01-23T12:27:59.560Z,74.70
2019-01-23T12:30:27.731Z,74.53
2019-01-23T12:32:55.200Z,74.57
2019-01-23T12:35:22.767Z,74.77
2019-01-23T12:37:50.204Z,74.52
2019-01-23T12:40:17.724Z,74.68
2019-01-23T12:42:45.240Z,74.69
2019-01-23T12:45:14.651Z,74.71
2019-01-23T12:47:42.100Z,74.42
2019-01-23T12:50:10.570Z,74.41
2019-01-23T12:52:37.991Z,74.73
2019-01-23T12:55:05.470Z,75.09
2019-01-23T12:57:32.895Z,75.46
2019-01-23T13:00:05.148Z,75.41
2019-01-23T13:02:27.838Z,75.44
2019-01-23T13:04:55.232Z,75.40
2019-01-23T13:07:23.181Z,75.74
2019-01-23T13:09:51.026Z,75.08
2019-01-23T13:12:18.426Z,74.78
2019-01-23T13:14:45.863Z,74.61
2019-01-23T13:17:13.962Z,74.50
2019-01-23T13:19:41.472Z,74.64
2019-01-23T13:22:08.888Z,74.88
2019-01-23T13:24:36.301Z,75.57
2019-01-23T13:27:03.718Z,75.74
2019-01-23T13:29:31.115Z,75.36
2019-01-23T13:31:58.600Z,75.30
2019-01-23T13:34:26.013Z,75.88
2019-01-23T13:36:53.504Z,75.73
2019-01-23T13:39:20.958Z,75.63
2019-01-23T13:41:48.446Z,75.61
2019-01-23T13:44:15.841Z,75.51
2019-01-23T13:46:43.285Z,75.57
2019-01-23T13:49:10.698Z,75.81
2019-01-23T13:51:38.116Z,76.05
2019-01-23T13:54:05.575Z,75.83
2019-01-23T13:56:33.930Z,75.82
2019-01-23T13:59:01.347Z,75.76
2019-01-23T14:01:28.762Z,75.79
2019-01-23T14:03:56.339Z,75.97
2019-01-23T14:06:24.474Z,75.53
2019-01-23T14:08:51.922Z,75.21
2019-01-23T14:11:19.327Z,75.27
2019-01-23T14:13:46.723Z,75.56
2019-01-23T14:16:14.122Z,75.40
2019-01-23T14:18:41.520Z,75.04
2019-01-23T14:21:09.171Z,75.16
2019-01-23T14:23:36.575Z,75.07
2019-01-23T14:26:04.111Z,75.25
2019-01-23T14:28:31.521Z,75.25
2019-01-23T14:30:58.953Z,75.38
2019-01-23T14:33:26.426Z,75.05
2019-01-23T14:35:53.839Z,75.16
2019-01-23T14:38:21.364Z,75.33
2019-01-23T14:40:48.780Z,75.09
2019-01-23T14:43:16.277Z,75.40
2019-01-23T14:45:43.706Z,75.17
2019-01-23T14:48:11.200Z,75.12
2019-01-23T14:50:38.610Z,75.00
2019-01-23T14:53:06.036Z,75.21
2019-01-23T14:55:33.688Z,75.62
2019-01-23T14:58:01.158Z,75.85
2019-01-23T15:00:29.420Z,75.97
2019-01-23T15:02:56.935Z,76.18
2019-01-23T15:05:24.341Z,76.24
2019-01-23T15:07:51.806Z,76.41
2019-01-23T15:10:20.018Z,76.41
2019-01-23T15:12:47.463Z,76.32
2019-01-23T15:15:14.899Z,76.22
2019-01-23T15:17:43.277Z,76.25
2019-01-23T15:20:12.219Z,76.42
2019-01-23T15:22:39.702Z,76.26
2019-01-23T15:25:06.727Z,76.16
2019-01-23T15:27:34.307Z,76.23
2019-01-23T15:30:01.950Z,76.48
2019-01-23T15:32:29.412Z,76.54
2019-01-23T15:34:56.904Z,76.59
2019-01-23T15:37:24.424Z,76.56
2019-01-23T15:39:51.955Z,76.51
2019-01-23T15:42:18.967Z,76.46
2019-01-23T15:44:46.355Z,76.64
2019-01-23T15:47:13.891Z,76.73
2019-01-23T15:49:41.308Z,76.87
2019-01-23T15:52:08.726Z,76.78
2019-01-23T15:54:36.142Z,77.08
2019-01-23T15:57:03.686Z,77.22
2019-01-23T15:59:31.172Z,76.98
2019-01-23T16:01:58.741Z,76.84
2019-01-23T16:04:26.150Z,76.97
2019-01-23T16:06:54.145Z,77.23
2019-01-23T16:09:21.592Z,77.25
2019-01-23T16:11:49.131Z,77.39
2019-01-23T16:14:16.623Z,77.31
2019-01-23T16:16:44.095Z,77.40
2019-01-23T16:19:11.637Z,77.40
2019-01-23T16:21:45.454Z,77.78
2019-01-23T16:24:07.107Z,77.50
2019-01-23T16:26:34.531Z,77.42
2019-01-23T16:29:02.091Z,77.30
2019-01-23T16:31:29.543Z,77.35
2019-01-23T16:33:56.982Z,77.25
2019-01-23T16:36:24.423Z,77.36
2019-01-23T16:38:52.778Z,77.51
2019-01-23T16:41:20.180Z,77.63
2019-01-23T16:43:47.699Z,77.75
2019-01-23T16:46:15.106Z,77.39
2019-01-23T16:48:42.543Z,77.45
2019-01-23T16:51:09.980Z,77.65
2019-01-23T16:53:37.410Z,77.44
2019-01-23T16:56:04.880Z,77.34
2019-01-23T16:58:32.285Z,77.05
2019-01-23T17:01:00.512Z,77.46
2019-01-23T17:03:28.885Z,77.36
2019-01-23T17:05:56.432Z,77.19
2019-01-23T17:08:23.860Z,77.03
2019-01-23T17:10:51.257Z,77.10
2019-01-23T17:13:18.765Z,76.66
2019-01-23T17:15:47.365Z,76.65
2019-01-23T17:18:14.787Z,76.20
2019-01-23T17:20:42.185Z,76.15
2019-01-23T17:23:09.630Z,76.38
2019-01-23T17:25:37.048Z,76.55
2019-01-23T17:28:04.647Z,76.41
2019-01-23T17:30:32.181Z,76.38
2019-01-23T17:32:59.764Z,76.54
2019-01-23T17:35:28.586Z,76.64
2019-01-23T17:37:55.968Z,76.70
2019-01-23T17:40:23.398Z,76.58
2019-01-23T17:42:50.427Z,76.39
2019-01-23T17:45:19.197Z,76.34
2019-01-23T17:47:46.352Z,76.67
2019-01-23T17:50:13.336Z,76.52
2019-01-23T17:52:40.349Z,76.62
2019-01-23T17:55:07.313Z,76.33
2019-01-23T17:57:34.354Z,76.59
2019-01-23T18:00:01.320Z,77.24
2019-01-23T18:02:29.094Z,76.97
2019-01-23T18:04:56.063Z,76.58
2019-01-23T18:07:23.048Z,76.50
2019-01-23T18:09:50.007Z,76.67
2019-01-23T18:12:17.045Z,77.12
2019-01-23T18:14:48.992Z,77.54
2019-01-23T18:17:11.102Z,77.75
2019-01-23T18:19:38.178Z,77.91
2019-01-23T18:22:06.492Z,77.87
2019-01-23T18:24:33.452Z,78.24
2019-01-23T18:27:00.447Z,78.60
2019-01-23T18:29:27.599Z,78.70
2019-01-23T18:31:55.415Z,78.79
2019-01-23T18:34:24.012Z,78.68
2019-01-23T18:37:07.639Z,78.60
2019-01-23T18:39:36.734Z,78.75
2019-01-23T18:42:14.538Z,78.82
2019-01-23T18:44:52.269Z,78.66
2019-01-23T18:47:26.033Z,78.48
2019-01-23T18:50:11.268Z,78.75
2019-01-23T18:52:38.254Z,78.79
2019-01-23T18:55:05.648Z,78.80
2019-01-23T18:57:32.632Z,78.61
2019-01-23T18:59:59.622Z,78.46
2019-01-23T19:02:26.562Z,78.90
2019-01-23T19:04:53.758Z,78.92
2019-01-23T19:07:20.788Z,78.76
2019-01-23T19:09:48.194Z,78.93
2019-01-23T19:12:15.390Z,79.14
2019-01-23T19:14:42.348Z,79.22
2019-01-23T19:17:09.334Z,79.26
2019-01-23T19:19:36.464Z,79.46
2019-01-23T19:22:03.559Z,79.45
2019-01-23T19:24:30.510Z,79.19
2019-01-23T19:26:57.523Z,79.17
2019-01-23T19:29:24.505Z,78.95
2019-01-23T19:31:51.465Z,78.68
2019-01-23T19:34:18.405Z,78.75
2019-01-23T19:36:45.592Z,78.56
2019-01-23T19:39:12.583Z,78.74
2019-01-23T19:41:40.046Z,78.40
2019-01-23T19:44:07.140Z,78.41
2019-01-23T19:46:34.143Z,78.63
2019-01-23T19:49:01.132Z,79.04
2019-01-23T19:51:28.267Z,79.16
2019-01-23T19:53:55.215Z,79.44
2019-01-23T19:56:22.193Z,79.30
2019-01-23T19:58:49.169Z,79.39
2019-01-23T20:01:16.188Z,79.46
2019-01-23T20:03:43.143Z,79.02
2019-01-23T20:06:10.099Z,79.14
2019-01-23T20:11:10.503Z,78.96
2019-01-23T20:13:37.520Z,78.88
2019-01-23T20:16:04.536Z,78.31
2019-01-23T20:18:31.572Z,77.57
2019-01-23T20:20:58.683Z,76.98
2019-01-23T20:23:25.651Z,76.94
2019-01-23T20:25:52.626Z,77.23
2019-01-23T20:28:19.647Z,77.68
2019-01-23T20:30:46.649Z,77.64
2019-01-23T20:33:13.823Z,78.00
2019-01-23T20:35:41.046Z,78.14
2019-01-23T20:38:07.980Z,78.16
2019-01-23T20:40:34.943Z,78.53
2019-01-23T20:43:02.057Z,78.79
2019-01-23T20:45:29.235Z,78.91
2019-01-23T20:47:56.201Z,78.76
2019-01-23T20:50:23.163Z,78.78
2019-01-23T20:52:50.368Z,78.83
2019-01-23T20:55:18.363Z,78.97
2019-01-23T20:57:45.605Z,78.93
2019-01-23T21:00:14.194Z,79.19
2019-01-23T21:02:41.388Z,78.99
2019-01-23T21:05:08.601Z,78.98
2019-01-23T21:07:35.602Z,78.99
2019-01-23T21:10:02.634Z,79.02
2019-01-23T21:12:29.935Z,78.91
2019-01-23T21:14:56.967Z,78.57
2019-01-23T21:17:24.042Z,77.84
2019-01-23T21:19:51.235Z,77.29
2019-01-23T21:22:18.270Z,77.33
2019-01-23T21:24:45.273Z,77.50
2019-01-23T21:27:12.307Z,77.54
2019-01-23T21:29:39.343Z,77.95
2019-01-23T21:32:06.436Z,78.13
2019-01-23T21:34:33.561Z,78.04
2019-01-23T21:37:00.507Z,78.25
2019-01-23T21:39:27.451Z,78.03
2019-01-23T21:41:54.386Z,78.12
2019-01-23T21:44:21.324Z,78.32
2019-01-23T21:46:48.405Z,78.40
2019-01-23T21:49:15.545Z,78.40
2019-01-23T21:51:42.683Z,78.58
2019-01-23T21:54:09.639Z,78.70
2019-01-23T21:56:36.631Z,78.70
2019-01-23T21:59:03.593Z,78.52
2019-01-23T22:01:30.582Z,78.52
2019-01-23T22:03:57.997Z,78.35
2019-01-23T22:06:25.063Z,78.58
2019-01-23T22:08:52.169Z,79.25
2019-01-23T22:11:19.142Z,78.49
2019-01-23T22:13:46.083Z,78.11
2019-01-23T22:16:13.051Z,77.26
2019-01-23T22:18:40.058Z,77.35
2019-01-23T22:21:07.022Z,76.84
2019-01-23T22:23:34.154Z,77.00
2019-01-23T22:26:01.295Z,76.90
2019-01-23T22:28:28.239Z,76.69
2019-01-23T22:30:55.203Z,76.23
2019-01-23T22:33:22.154Z,76.05
2019-01-23T22:35:49.115Z,75.40
2019-01-23T22:38:16.236Z,74.71
2019-01-23T22:40:43.204Z,74.95
2019-01-23T22:43:15.010Z,75.21
2019-01-23T22:45:37.116Z,74.90
2019-01-23T22:48:04.040Z,74.92
2019-01-23T22:50:31.025Z,74.19
2019-01-23T22:52:57.973Z,73.68
2019-01-23T22:55:25.099Z,73.35
2019-01-23T22:57:52.030Z,73.03
2019-01-23T23:00:19.977Z,72.67
2019-01-23T23:02:47.702Z,73.31
2019-01-23T23:05:14.980Z,73.12
2019-01-23T23:07:41.952Z,72.88
2019-01-23T23:10:08.923Z,72.85
2019-01-23T23:12:35.855Z,72.95
2019-01-23T23:15:02.857Z,72.57
2019-01-23T23:17:29.788Z,72.08
2019-01-23T23:19:56.756Z,72.20
2019-01-23T23:22:23.715Z,72.24
2019-01-23T23:24:50.686Z,71.56
2019-01-23T23:27:18.147Z,71.43
2019-01-23T23:29:45.165Z,71.45
2019-01-23T23:32:12.107Z,71.08
2019-01-23T23:34:39.069Z,71.42
2019-01-23T23:37:06.002Z,71.41
2019-01-23T23:39:33.040Z,71.47
2019-01-23T23:42:00.601Z,70.83
2019-01-23T23:44:27.554Z,70.58
2019-01-23T23:46:55.611Z,70.33
2019-01-23T23:49:21.543Z,70.10
2019-01-23T23:51:48.532Z,70.33
2019-01-23T23:54:15.474Z,70.42
2019-01-23T23:56:42.643Z,70.71
2019-01-23T23:59:09.622Z,70.90
